createdAt,value
2022-11-03T00:01:46.657Z,9.07
2022-11-03T00:04:16.402Z,10.00
2022-11-03T00:06:45.268Z,9.00
2022-11-03T00:09:14.824Z,10.07
2022-11-03T00:11:43.775Z,9.50
2022-11-03T00:14:12.295Z,8.57
2022-11-03T00:16:40.188Z,9.57
2022-11-03T00:19:08.751Z,9.60
2022-11-03T00:21:36.963Z,10.97
2022-11-03T00:24:05.086Z,9.43
2022-11-03T00:26:34.183Z,8.80
2022-11-03T00:29:06.438Z,9.93
2022-11-03T00:31:35.635Z,9.20
2022-11-03T00:34:03.586Z,9.20
2022-11-03T00:36:36.023Z,8.63
2022-11-03T00:39:04.905Z,8.97
2022-11-03T00:41:32.464Z,9.93
2022-11-03T00:44:00.276Z,9.17
2022-11-03T00:46:27.838Z,8.50
2022-11-03T00:48:55.080Z,8.90
2022-11-03T00:51:27.790Z,8.50
2022-11-03T00:54:00.147Z,8.70
2022-11-03T00:56:33.325Z,8.90
2022-11-03T00:59:01.818Z,8.70
2022-11-03T01:01:42.105Z,9.47
2022-11-03T01:04:29.037Z,8.93
2022-11-03T01:06:58.799Z,8.43
2022-11-03T01:09:33.984Z,7.93
2022-11-03T01:12:02.859Z,8.90
2022-11-03T01:14:34.061Z,8.67
2022-11-03T01:17:02.329Z,9.07
2022-11-03T01:19:29.591Z,8.50
2022-11-03T01:21:56.818Z,8.70
2022-11-03T01:24:24.178Z,9.03
2022-11-03T01:26:51.797Z,8.77
2022-11-03T01:29:19.196Z,9.70
2022-11-03T01:31:46.500Z,8.80
2022-11-03T01:34:18.608Z,7.83
2022-11-03T01:36:46.636Z,8.50
2022-11-03T01:39:16.063Z,7.87
2022-11-03T01:41:45.463Z,8.57
2022-11-03T01:44:12.616Z,7.70
2022-11-03T01:47:03.924Z,8.37
2022-11-03T01:49:41.279Z,8.53
2022-11-03T01:52:26.592Z,7.07
2022-11-03T01:55:04.646Z,7.07
2022-11-03T01:57:39.996Z,7.47
2022-11-03T02:00:08.310Z,6.03
2022-11-03T02:02:35.913Z,7.03
2022-11-03T02:05:05.282Z,7.13
2022-11-03T02:07:58.774Z,6.30
2022-11-03T02:10:26.238Z,6.33
2022-11-03T02:12:53.964Z,6.77
2022-11-03T02:15:22.335Z,6.23
2022-11-03T02:17:52.076Z,5.80
2022-11-03T02:20:29.645Z,5.90
2022-11-03T02:23:26.652Z,5.80
2022-11-03T02:25:56.754Z,6.60
2022-11-03T02:28:29.439Z,5.87
2022-11-03T02:31:32.650Z,6.50
2022-11-03T02:34:38.377Z,6.03
2022-11-03T02:37:28.948Z,5.70
2022-11-03T02:40:19.075Z,7.10
2022-11-03T02:42:51.026Z,6.63
2022-11-03T02:45:21.358Z,6.27
2022-11-03T02:47:50.894Z,5.33
2022-11-03T02:50:20.168Z,6.37
2022-11-03T02:52:48.631Z,5.40
2022-11-03T02:55:29.122Z,6.53
2022-11-03T02:58:11.500Z,5.80
2022-11-03T03:00:52.210Z,5.33
2022-11-03T03:03:37.964Z,5.80
2022-11-03T03:06:11.210Z,5.90
2022-11-03T03:08:43.689Z,5.80
2022-11-03T03:11:13.469Z,5.67
2022-11-03T03:13:42.526Z,5.97
2022-11-03T03:16:16.823Z,6.53
2022-11-03T03:18:58.037Z,5.77
2022-11-03T03:21:34.993Z,5.83
2022-11-03T03:24:16.288Z,7.23
2022-11-03T03:26:49.702Z,5.57
2022-11-03T03:29:26.633Z,6.37
2022-11-03T03:32:03.829Z,5.80
2022-11-03T03:34:35.937Z,6.10
2022-11-03T03:37:06.636Z,6.67
2022-11-03T03:39:37.748Z,6.80
2022-11-03T03:42:08.085Z,6.30
2022-11-03T03:44:37.098Z,7.13
2022-11-03T03:47:27.313Z,7.00
2022-11-03T03:49:55.703Z,6.97
2022-11-03T03:52:23.879Z,7.57
2022-11-03T03:54:51.688Z,6.93
2022-11-03T03:57:22.378Z,7.27
2022-11-03T03:59:49.725Z,7.30
2022-11-03T04:02:17.256Z,9.50
2022-11-03T04:04:44.641Z,8.57
2022-11-03T04:07:30.640Z,8.70
2022-11-03T04:09:57.836Z,8.33
2022-11-03T04:12:43.701Z,9.03
2022-11-03T04:15:32.852Z,7.77
2022-11-03T04:18:18.497Z,7.90
2022-11-03T04:21:04.636Z,7.93
2022-11-03T04:23:31.994Z,7.27
2022-11-03T04:25:59.745Z,7.60
2022-11-03T04:28:27.441Z,7.83
2022-11-03T04:30:59.747Z,6.73
2022-11-03T04:33:29.119Z,7.00
2022-11-03T04:35:59.497Z,6.87
2022-11-03T04:38:29.459Z,6.53
2022-11-03T04:40:58.924Z,6.00
2022-11-03T04:43:37.471Z,6.73
2022-11-03T04:46:06.153Z,6.10
2022-11-03T04:48:34.320Z,6.17
2022-11-03T04:51:06.051Z,5.50
2022-11-03T04:53:33.667Z,5.40
2022-11-03T04:56:06.179Z,6.20
2022-11-03T04:58:36.258Z,5.90
2022-11-03T05:01:04.755Z,6.70
2022-11-03T05:03:36.239Z,4.70
2022-11-03T05:06:12.844Z,5.50
2022-11-03T05:08:40.782Z,4.47
2022-11-03T05:11:31.207Z,5.33
2022-11-03T05:14:18.810Z,4.70
2022-11-03T05:16:47.471Z,5.57
2022-11-03T05:19:57.138Z,4.70
2022-11-03T05:22:29.397Z,4.33
2022-11-03T05:25:01.321Z,5.20
2022-11-03T05:27:28.708Z,4.27
2022-11-03T05:30:00.829Z,4.70
2022-11-03T05:32:33.144Z,4.37
2022-11-03T05:35:01.291Z,4.30
2022-11-03T05:37:29.729Z,5.70
2022-11-03T05:40:15.181Z,5.13
2022-11-03T05:42:45.351Z,4.20
2022-11-03T05:45:26.883Z,5.07
2022-11-03T05:47:57.145Z,4.77
2022-11-03T05:50:35.057Z,4.80
2022-11-03T05:53:23.206Z,4.50
2022-11-03T05:55:50.476Z,4.87
2022-11-03T05:58:26.838Z,4.77
2022-11-03T06:00:57.668Z,5.20
2022-11-03T06:03:30.116Z,5.77
2022-11-03T06:05:58.772Z,5.17
2022-11-03T06:08:30.761Z,6.13
2022-11-03T06:10:59.766Z,6.00
2022-11-03T06:13:39.976Z,5.00
2022-11-03T06:16:41.930Z,5.40
2022-11-03T06:19:15.986Z,5.17
2022-11-03T06:21:44.827Z,5.20
2022-11-03T06:24:14.154Z,6.27
2022-11-03T06:26:43.195Z,5.67
2022-11-03T06:29:18.820Z,5.63
2022-11-03T06:31:49.863Z,5.27
2022-11-03T06:34:37.225Z,4.47
2022-11-03T06:37:34.275Z,5.00
2022-11-03T06:40:11.217Z,5.50
2022-11-03T06:42:40.077Z,7.10
2022-11-03T06:45:20.382Z,6.83
2022-11-03T06:47:48.203Z,4.90
2022-11-03T06:50:32.670Z,6.07
2022-11-03T06:53:06.675Z,5.00
2022-11-03T06:55:35.812Z,4.97
2022-11-03T06:58:26.559Z,4.53
2022-11-03T07:01:02.627Z,5.27
2022-11-03T07:03:35.413Z,5.17
2022-11-03T07:06:17.896Z,4.03
2022-11-03T07:08:48.387Z,4.37
2022-11-03T07:11:22.758Z,4.90
2022-11-03T07:13:58.561Z,4.90
2022-11-03T07:16:33.571Z,5.17
2022-11-03T07:19:04.021Z,6.50
2022-11-03T07:21:49.410Z,6.37
2022-11-03T07:24:25.748Z,5.20
2022-11-03T07:27:11.247Z,4.57
2022-11-03T07:29:38.567Z,5.07
2022-11-03T07:32:13.937Z,5.10
2022-11-03T07:34:41.358Z,5.33
2022-11-03T07:37:16.033Z,5.93
2022-11-03T07:39:43.283Z,5.47
2022-11-03T07:42:19.993Z,6.20
2022-11-03T07:44:48.402Z,5.93
2022-11-03T07:47:26.828Z,5.20
2022-11-03T07:49:56.175Z,5.87
2022-11-03T07:52:25.887Z,5.27
2022-11-03T07:54:57.350Z,5.40
2022-11-03T07:57:32.203Z,5.00
2022-11-03T08:00:10.866Z,6.50
2022-11-03T08:02:51.006Z,5.40
2022-11-03T08:07:50.488Z,5.90
2022-11-03T08:10:17.753Z,5.63
2022-11-03T08:12:45.036Z,5.93
2022-11-03T08:15:12.200Z,6.07
2022-11-03T08:17:39.400Z,5.80
2022-11-03T08:20:07.196Z,5.70
2022-11-03T08:22:34.415Z,5.80
2022-11-03T08:25:01.669Z,5.43
2022-11-03T08:27:28.928Z,8.50
2022-11-03T08:29:56.143Z,14.00
2022-11-03T08:32:23.356Z,8.40
2022-11-03T08:34:53.379Z,8.50
2022-11-03T08:37:20.619Z,5.33
2022-11-03T08:39:47.892Z,6.03
2022-11-03T08:42:15.104Z,5.63
2022-11-03T08:44:42.578Z,6.00
2022-11-03T08:47:09.797Z,6.20
2022-11-03T08:49:37.057Z,5.30
2022-11-03T08:52:04.351Z,5.40
2022-11-03T08:54:31.577Z,6.20
2022-11-03T08:56:58.795Z,5.30
2022-11-03T08:59:26.174Z,5.87
2022-11-03T09:01:53.576Z,6.40
2022-11-03T09:04:21.251Z,6.00
2022-11-03T09:06:48.480Z,4.97
2022-11-03T09:12:03.559Z,5.87
2022-11-03T09:14:30.796Z,5.20
2022-11-03T09:16:58.146Z,5.37
2022-11-03T09:19:25.459Z,5.30
2022-11-03T09:21:53.018Z,5.47
2022-11-03T09:24:20.231Z,4.60
2022-11-03T09:26:47.458Z,4.53
2022-11-03T09:29:14.676Z,5.03
2022-11-03T09:31:42.044Z,4.90
2022-11-03T09:34:09.229Z,5.07
2022-11-03T09:36:36.439Z,4.00
2022-11-03T09:39:03.934Z,3.73
2022-11-03T09:41:53.711Z,4.20
2022-11-03T09:44:20.376Z,4.50
2022-11-03T09:46:48.241Z,4.40
2022-11-03T09:49:16.331Z,4.47
2022-11-03T09:51:43.805Z,4.20
2022-11-03T09:54:13.946Z,4.40
2022-11-03T09:56:41.947Z,5.33
2022-11-03T09:59:23.739Z,4.93
2022-11-03T10:01:53.609Z,4.97
2022-11-03T10:04:27.027Z,4.47
2022-11-03T10:06:58.671Z,4.17
2022-11-03T10:09:28.551Z,4.60
2022-11-03T10:11:56.125Z,5.00
2022-11-03T10:14:24.235Z,5.33
2022-11-03T10:16:57.112Z,5.50
2022-11-03T10:19:25.672Z,5.00
2022-11-03T10:21:53.141Z,6.10
2022-11-03T10:24:20.382Z,5.47
2022-11-03T10:26:52.800Z,5.70
2022-11-03T10:29:22.918Z,5.93
2022-11-03T10:31:53.475Z,5.53
2022-11-03T10:34:39.484Z,7.60
2022-11-03T10:37:22.678Z,7.07
2022-11-03T10:39:51.765Z,6.50
2022-11-03T10:42:20.704Z,6.00
2022-11-03T10:44:50.837Z,7.20
2022-11-03T10:47:34.822Z,6.53
2022-11-03T10:50:22.498Z,6.10
2022-11-03T10:52:50.663Z,6.17
2022-11-03T10:55:23.774Z,6.40
2022-11-03T10:57:55.825Z,7.60
2022-11-03T11:00:24.417Z,7.30
2022-11-03T11:02:56.873Z,8.17
2022-11-03T11:05:24.998Z,6.37
2022-11-03T11:07:54.298Z,9.37
2022-11-03T11:10:26.912Z,8.80
2022-11-03T11:13:15.618Z,9.00
2022-11-03T11:15:45.132Z,7.90
2022-11-03T11:18:32.260Z,8.80
2022-11-03T11:21:15.609Z,8.50
2022-11-03T11:23:44.753Z,9.20
2022-11-03T11:26:17.653Z,9.00
2022-11-03T11:29:14.069Z,8.30
2022-11-03T11:31:45.208Z,7.80
2022-11-03T11:34:21.387Z,8.50
2022-11-03T11:36:57.792Z,7.47
2022-11-03T11:39:27.867Z,7.50
2022-11-03T11:42:13.788Z,7.60
2022-11-03T11:44:41.155Z,7.73
2022-11-03T11:47:27.050Z,8.23
2022-11-03T11:50:23.711Z,7.30
2022-11-03T11:52:57.882Z,7.90
2022-11-03T11:55:25.096Z,7.77
2022-11-03T11:57:53.594Z,7.83
2022-11-03T12:00:25.863Z,6.50
2022-11-03T12:02:54.176Z,6.53
2022-11-03T12:05:27.975Z,7.20
2022-11-03T12:07:56.000Z,7.40
2022-11-03T12:10:31.456Z,6.47
2022-11-03T12:13:00.142Z,7.53
2022-11-03T12:15:56.002Z,7.60
2022-11-03T12:18:49.309Z,7.70
2022-11-03T12:21:46.731Z,7.23
2022-11-03T12:24:32.375Z,7.90
2022-11-03T12:27:00.724Z,6.57
2022-11-03T12:29:28.224Z,7.50
2022-11-03T12:31:55.877Z,7.93
2022-11-03T12:34:23.106Z,7.30
2022-11-03T12:36:55.774Z,6.80
2022-11-03T12:39:23.532Z,6.40
2022-11-03T12:41:50.757Z,5.90
2022-11-03T12:44:17.979Z,6.53
2022-11-03T12:46:45.196Z,6.80
2022-11-03T12:49:12.396Z,7.10
2022-11-03T12:51:39.643Z,8.30
2022-11-03T12:54:06.815Z,8.30
2022-11-03T12:56:34.142Z,6.60
2022-11-03T12:59:01.687Z,7.20
2022-11-03T13:01:30.184Z,6.40
2022-11-03T13:03:57.768Z,6.10
2022-11-03T13:06:25.018Z,6.30
2022-11-03T13:08:53.334Z,7.07
2022-11-03T13:11:39.345Z,6.13
2022-11-03T13:14:06.589Z,6.70
2022-11-03T13:16:33.841Z,6.53
2022-11-03T13:19:01.066Z,6.50
2022-11-03T13:21:28.421Z,6.50
2022-11-03T13:23:56.486Z,6.87
2022-11-03T13:26:23.847Z,7.07
2022-11-03T13:28:51.155Z,8.17
2022-11-03T13:31:18.348Z,7.23
2022-11-03T13:33:45.690Z,7.70
2022-11-03T13:36:12.992Z,6.13
2022-11-03T13:38:40.387Z,6.17
2022-11-03T13:41:09.204Z,6.90
2022-11-03T13:43:37.280Z,6.87
2022-11-03T13:46:05.287Z,6.90
2022-11-03T13:51:21.515Z,7.33
2022-11-03T14:07:08.257Z,7.20
2022-11-03T14:12:26.420Z,7.93
2022-11-03T14:14:53.599Z,8.20
2022-11-03T14:17:20.843Z,8.20
2022-11-03T14:19:52.419Z,7.57
2022-11-03T14:22:21.786Z,7.90
2022-11-03T14:24:49.105Z,7.13
2022-11-03T14:27:17.253Z,7.93
2022-11-03T14:29:45.237Z,7.60
2022-11-03T14:32:12.620Z,7.20
2022-11-03T14:34:39.856Z,7.80
2022-11-03T14:37:08.902Z,8.50
2022-11-03T14:39:36.882Z,7.60
2022-11-03T14:42:05.738Z,8.53
2022-11-03T14:44:34.812Z,7.60
2022-11-03T14:47:03.537Z,7.30
2022-11-03T14:49:32.008Z,7.80
2022-11-03T14:52:01.606Z,9.20
2022-11-03T14:54:30.571Z,8.80
2022-11-03T14:56:57.992Z,7.13
2022-11-03T14:59:26.146Z,8.30
2022-11-03T15:01:53.973Z,9.77
2022-11-03T15:04:21.776Z,14.23
2022-11-03T15:06:49.209Z,11.40
2022-11-03T15:09:16.734Z,9.77
2022-11-03T15:11:44.480Z,8.83
2022-11-03T15:14:12.340Z,9.67
2022-11-03T15:16:40.372Z,7.87
2022-11-03T15:19:08.845Z,8.37
2022-11-03T15:21:36.107Z,7.10
2022-11-03T15:26:50.875Z,10.23
2022-11-03T15:29:18.153Z,7.97
2022-11-03T15:31:48.174Z,10.83
2022-11-03T15:34:16.451Z,11.80
2022-11-03T15:36:43.870Z,12.23
2022-11-03T15:39:11.049Z,13.90
2022-11-03T15:41:38.265Z,13.90
2022-11-03T15:44:05.535Z,12.97
2022-11-03T15:46:32.773Z,13.77
2022-11-03T15:49:00.682Z,12.77
2022-11-03T15:51:28.007Z,13.17
2022-11-03T15:53:58.563Z,15.13
2022-11-03T15:56:30.004Z,13.27
2022-11-03T15:58:57.521Z,13.40
2022-11-03T16:01:24.945Z,13.80
2022-11-03T16:03:52.571Z,12.50
2022-11-03T16:06:27.031Z,11.97
2022-11-03T16:09:07.874Z,12.20
2022-11-03T16:11:35.078Z,12.80
2022-11-03T16:14:02.320Z,11.93
2022-11-03T16:16:29.488Z,10.83
2022-11-03T16:18:56.735Z,9.60
2022-11-03T16:21:24.066Z,10.43
2022-11-03T16:23:51.270Z,8.87
2022-11-03T16:26:21.941Z,9.80
2022-11-03T16:28:49.115Z,9.57
2022-11-03T16:31:16.785Z,10.43
2022-11-03T16:33:44.431Z,9.10
2022-11-03T16:36:11.686Z,9.97
2022-11-03T16:38:38.874Z,9.47
2022-11-03T16:41:06.141Z,10.77
2022-11-03T16:43:33.290Z,11.50
2022-11-03T16:46:00.691Z,11.60
2022-11-03T16:48:28.052Z,12.10
2022-11-03T16:50:56.689Z,12.27
2022-11-03T16:53:24.766Z,13.17
2022-11-03T16:55:52.652Z,13.80
2022-11-03T16:58:20.142Z,11.10
2022-11-03T17:00:47.693Z,12.70
2022-11-03T17:03:14.973Z,11.50
2022-11-03T17:05:42.379Z,12.10
2022-11-03T17:08:25.875Z,11.00
2022-11-03T17:10:57.038Z,10.07
2022-11-03T17:13:24.395Z,11.67
2022-11-03T17:15:51.626Z,10.57
2022-11-03T17:18:18.867Z,11.57
2022-11-03T17:20:46.990Z,13.53
2022-11-03T17:23:14.295Z,12.10
2022-11-03T17:25:41.558Z,12.53
2022-11-03T17:28:11.287Z,11.43
2022-11-03T17:30:39.591Z,11.70
2022-11-03T17:33:09.504Z,12.50
2022-11-03T17:35:42.489Z,13.60
2022-11-03T17:38:17.768Z,12.07
2022-11-03T17:40:47.347Z,12.83
2022-11-03T17:43:27.058Z,11.53
2022-11-03T17:45:54.686Z,11.80
2022-11-03T17:48:24.718Z,12.63
2022-11-03T17:50:55.420Z,12.90
2022-11-03T17:53:26.402Z,12.27
2022-11-03T17:56:23.598Z,13.20
2022-11-03T17:58:46.481Z,12.70
2022-11-03T18:01:23.764Z,13.27
2022-11-03T18:03:52.210Z,11.70
2022-11-03T18:06:21.255Z,13.00
2022-11-03T18:08:49.557Z,17.00
2022-11-03T18:11:42.920Z,17.83
2022-11-03T18:14:10.100Z,18.07
2022-11-03T18:16:37.587Z,15.10
2022-11-03T18:19:04.949Z,13.33
2022-11-03T18:21:32.230Z,13.40
2022-11-03T18:23:59.467Z,12.57
2022-11-03T18:26:27.480Z,12.73
2022-11-03T18:28:54.903Z,12.83
2022-11-03T18:31:34.064Z,14.67
2022-11-03T18:34:10.316Z,14.03
2022-11-03T18:36:37.778Z,13.97
2022-11-03T18:39:05.386Z,14.63
2022-11-03T18:41:41.639Z,13.27
2022-11-03T18:44:21.689Z,12.77
2022-11-03T18:46:51.312Z,14.20
2022-11-03T18:49:19.433Z,14.60
2022-11-03T18:52:17.016Z,13.80
2022-11-03T18:54:52.269Z,16.40
2022-11-03T18:57:23.497Z,18.47
2022-11-03T18:59:51.193Z,18.40
2022-11-03T19:02:26.444Z,17.83
2022-11-03T19:04:54.384Z,18.80
2022-11-03T19:07:27.610Z,19.47
2022-11-03T19:09:54.849Z,21.73
2022-11-03T19:12:22.499Z,18.97
2022-11-03T19:14:50.398Z,19.73
2022-11-03T19:17:23.504Z,19.07
2022-11-03T19:19:53.021Z,20.97
2022-11-03T19:22:22.629Z,19.10
2022-11-03T19:24:50.191Z,19.70
2022-11-03T19:27:25.584Z,19.17
2022-11-03T19:29:53.515Z,18.63
2022-11-03T19:32:30.162Z,20.43
2022-11-03T19:35:14.291Z,19.10
2022-11-03T19:37:41.801Z,18.47
2022-11-03T19:40:13.327Z,20.33
2022-11-03T19:42:40.570Z,20.30
2022-11-03T19:45:16.919Z,19.10
2022-11-03T19:48:23.048Z,19.80
2022-11-03T19:50:45.585Z,17.70
2022-11-03T19:53:20.121Z,18.57
2022-11-03T19:55:48.181Z,18.37
2022-11-03T19:58:22.324Z,18.43
2022-11-03T20:00:50.655Z,17.80
2022-11-03T20:03:18.200Z,18.17
2022-11-03T20:05:49.500Z,19.17
2022-11-03T20:08:23.205Z,18.37
2022-11-03T20:10:50.839Z,19.57
2022-11-03T20:13:28.823Z,19.43
2022-11-03T20:16:00.737Z,18.40
2022-11-03T20:18:28.838Z,18.50
2022-11-03T20:20:56.565Z,17.43
2022-11-03T20:23:28.459Z,17.50
2022-11-03T20:25:56.108Z,18.20
2022-11-03T20:28:28.615Z,18.23
2022-11-03T20:30:57.477Z,20.60
2022-11-03T20:33:25.675Z,21.50
2022-11-03T20:35:54.594Z,21.40
2022-11-03T20:38:24.936Z,20.70
2022-11-03T20:40:58.766Z,23.70
2022-11-03T20:43:37.660Z,23.97
2022-11-03T20:46:22.028Z,22.10
2022-11-03T20:48:49.871Z,21.20
2022-11-03T20:51:19.129Z,22.37
2022-11-03T20:53:47.845Z,18.90
2022-11-03T20:56:24.523Z,19.73
2022-11-03T20:58:52.214Z,24.30
2022-11-03T21:01:33.290Z,21.43
2022-11-03T21:04:01.842Z,20.10
2022-11-03T21:06:31.412Z,19.43
2022-11-03T21:08:59.281Z,18.60
2022-11-03T21:11:29.859Z,18.40
2022-11-03T21:13:58.253Z,16.97
2022-11-03T21:16:46.291Z,18.27
2022-11-03T21:19:43.733Z,16.23
2022-11-03T21:22:51.420Z,17.70
2022-11-03T21:25:04.952Z,15.37
2022-11-03T21:27:32.240Z,16.07
2022-11-03T21:30:00.196Z,16.40
2022-11-03T21:32:27.751Z,15.73
2022-11-03T21:34:55.049Z,16.20
2022-11-03T21:37:22.282Z,16.00
2022-11-03T21:39:49.520Z,17.87
2022-11-03T21:42:35.583Z,17.53
2022-11-03T21:45:03.049Z,17.00
2022-11-03T21:47:30.332Z,19.47
2022-11-03T21:49:57.534Z,18.53
2022-11-03T21:52:33.654Z,18.70
2022-11-03T21:55:02.669Z,18.47
2022-11-03T21:57:30.136Z,18.57
2022-11-03T22:00:00.783Z,18.03
2022-11-03T22:02:30.173Z,17.57
2022-11-03T22:04:58.149Z,18.37
2022-11-03T22:07:25.478Z,18.37
2022-11-03T22:09:52.776Z,18.37
2022-11-03T22:12:20.008Z,17.33
2022-11-03T22:15:05.813Z,18.60
2022-11-03T22:17:33.120Z,19.70
2022-11-03T22:20:18.689Z,19.30
2022-11-03T22:23:04.666Z,18.37
2022-11-03T22:25:50.512Z,20.17
2022-11-03T22:28:18.051Z,17.80
2022-11-03T22:31:03.852Z,17.83
2022-11-03T22:33:31.128Z,17.90
2022-11-03T22:36:21.569Z,17.67
2022-11-03T22:39:07.907Z,17.20
2022-11-03T22:41:53.862Z,17.13
2022-11-03T22:44:39.768Z,17.40
2022-11-03T22:47:08.504Z,18.03
2022-11-03T22:49:36.165Z,15.13
2022-11-03T22:52:04.280Z,16.20
2022-11-03T22:54:31.556Z,15.60
2022-11-03T22:56:58.796Z,13.87
2022-11-03T22:59:26.025Z,15.40
2022-11-03T23:01:54.131Z,15.87
2022-11-03T23:04:21.520Z,17.70
2022-11-03T23:06:48.712Z,17.37
2022-11-03T23:09:15.990Z,18.47
2022-11-03T23:11:43.235Z,16.27
2022-11-03T23:14:11.805Z,16.97
2022-11-03T23:16:44.415Z,16.20
2022-11-03T23:19:32.566Z,15.97
2022-11-03T23:22:00.470Z,16.20
2022-11-03T23:24:46.485Z,14.30
2022-11-03T23:27:14.258Z,14.60
2022-11-03T23:29:41.469Z,13.37
2022-11-03T23:32:08.982Z,14.80
2022-11-03T23:34:36.268Z,14.13
2022-11-03T23:37:03.747Z,13.63
2022-11-03T23:39:30.999Z,13.83
2022-11-03T23:41:58.173Z,13.87
2022-11-03T23:44:25.474Z,14.13
2022-11-03T23:47:11.383Z,15.10
2022-11-03T23:49:38.588Z,14.60
2022-11-03T23:52:05.761Z,15.37
2022-11-03T23:54:32.984Z,15.00
2022-11-03T23:57:18.783Z,16.40
